createdAt,value
2023-02-04T00:02:25.311Z,24.83
2023-02-04T00:04:51.856Z,34.72
2023-02-04T00:07:18.462Z,24.02
2023-02-04T00:09:47.106Z,22.73
2023-02-04T00:12:14.106Z,33.80
2023-02-04T00:14:40.570Z,30.58
2023-02-04T00:17:11.501Z,34.65
2023-02-04T00:19:38.046Z,27.90
2023-02-04T00:22:04.830Z,21.48
2023-02-04T00:24:31.341Z,29.63
2023-02-04T00:26:57.915Z,19.90
2023-02-04T00:29:24.419Z,30.77
2023-02-04T00:31:51.072Z,28.50
2023-02-04T00:34:18.330Z,23.05
2023-02-04T00:36:45.456Z,20.77
2023-02-04T00:39:12.178Z,19.88
2023-02-04T00:41:38.824Z,36.75
2023-02-04T00:44:05.379Z,29.67
2023-02-04T00:46:31.926Z,30.83
2023-02-04T00:48:58.492Z,27.27
2023-02-04T00:51:25.094Z,29.08
2023-02-04T00:53:51.723Z,25.88
2023-02-04T00:56:18.189Z,18.92
2023-02-04T00:58:44.782Z,30.70
2023-02-04T01:01:11.267Z,31.65
2023-02-04T01:03:37.806Z,28.83
2023-02-04T01:06:04.332Z,30.77
2023-02-04T01:08:30.862Z,25.23
2023-02-04T01:10:57.485Z,28.88
2023-02-04T01:13:25.461Z,31.02
2023-02-04T01:15:51.960Z,29.88
2023-02-04T01:18:18.531Z,24.23
2023-02-04T01:20:45.037Z,29.08
2023-02-04T01:23:11.624Z,26.52
2023-02-04T01:25:38.181Z,31.23
2023-02-04T01:28:06.492Z,20.58
2023-02-04T01:30:33.306Z,26.73
2023-02-04T01:33:00.252Z,34.30
2023-02-04T01:35:26.772Z,28.33
2023-02-04T01:37:53.324Z,31.08
2023-02-04T01:40:19.963Z,36.50
2023-02-04T01:42:46.635Z,26.30
2023-02-04T01:45:13.152Z,23.42
2023-02-04T01:47:40.092Z,28.70
2023-02-04T01:50:07.190Z,23.50
2023-02-04T01:52:38.145Z,29.35
2023-02-04T01:55:06.387Z,26.55
2023-02-04T01:57:33.373Z,28.77
2023-02-04T02:00:00.925Z,23.42
2023-02-04T02:02:47.193Z,19.80
2023-02-04T02:05:28.945Z,19.63
2023-02-04T02:07:58.946Z,19.10
2023-02-04T02:10:25.794Z,32.38
2023-02-04T02:12:53.953Z,25.92
2023-02-04T02:15:20.659Z,31.20
2023-02-04T02:17:47.496Z,19.85
2023-02-04T02:20:16.599Z,25.38
2023-02-04T02:23:20.656Z,22.80
2023-02-04T02:25:47.767Z,14.32
2023-02-04T02:28:18.111Z,32.70
2023-02-04T02:30:46.089Z,25.00
2023-02-04T02:33:14.817Z,18.55
2023-02-04T02:35:43.488Z,29.45
2023-02-04T02:38:11.446Z,22.55
2023-02-04T02:40:38.587Z,24.25
2023-02-04T02:43:06.056Z,21.80
2023-02-04T02:45:33.150Z,17.60
2023-02-04T02:48:00.813Z,32.80
2023-02-04T02:50:30.070Z,29.83
2023-02-04T02:52:57.808Z,22.67
2023-02-04T02:55:26.062Z,32.45
2023-02-04T02:57:53.584Z,37.63
2023-02-04T03:00:28.477Z,26.77
2023-02-04T03:03:13.422Z,24.65
2023-02-04T03:05:42.469Z,30.77
2023-02-04T03:08:12.213Z,19.13
2023-02-04T03:10:38.853Z,22.30
2023-02-04T03:13:05.917Z,24.92
2023-02-04T03:15:32.929Z,25.60
2023-02-04T03:17:59.801Z,32.47
2023-02-04T03:20:29.400Z,25.02
2023-02-04T03:22:59.017Z,29.65
2023-02-04T03:25:29.127Z,28.77
2023-02-04T03:27:58.205Z,27.80
2023-02-04T03:30:25.752Z,30.65
2023-02-04T03:32:52.643Z,23.90
2023-02-04T03:35:20.005Z,26.55
2023-02-04T03:37:46.635Z,28.55
2023-02-04T03:40:13.731Z,22.08
2023-02-04T03:42:40.386Z,24.85
2023-02-04T03:45:07.349Z,22.13
2023-02-04T03:47:33.909Z,29.17
2023-02-04T03:50:00.421Z,35.97
2023-02-04T03:52:27.030Z,25.67
2023-02-04T03:54:53.534Z,40.67
2023-02-04T03:57:20.091Z,25.27
2023-02-04T03:59:46.642Z,35.92
2023-02-04T04:02:13.153Z,31.27
2023-02-04T04:04:39.697Z,29.17
2023-02-04T04:07:07.169Z,30.40
2023-02-04T04:09:33.661Z,35.60
2023-02-04T04:12:00.885Z,27.85
2023-02-04T04:14:27.636Z,27.00
2023-02-04T04:16:54.155Z,30.63
2023-02-04T04:19:20.667Z,35.33
2023-02-04T04:21:47.178Z,37.20
2023-02-04T04:24:13.717Z,23.45
2023-02-04T04:26:40.285Z,29.63
2023-02-04T04:29:06.829Z,33.38
2023-02-04T04:31:33.439Z,32.38
2023-02-04T04:34:01.638Z,32.17
2023-02-04T04:36:28.162Z,35.75
2023-02-04T04:38:54.683Z,22.50
2023-02-04T04:41:21.155Z,27.30
2023-02-04T04:43:47.657Z,32.92
2023-02-04T04:46:14.220Z,32.90
2023-02-04T04:48:40.704Z,36.35
2023-02-04T04:51:07.192Z,24.73
2023-02-04T04:53:33.709Z,27.05
2023-02-04T04:56:00.180Z,28.85
2023-02-04T04:58:26.663Z,23.38
2023-02-04T05:00:53.253Z,33.13
2023-02-04T05:03:19.825Z,31.58
2023-02-04T05:05:46.282Z,34.30
2023-02-04T05:08:16.912Z,20.95
2023-02-04T05:10:43.953Z,34.40
2023-02-04T05:13:10.607Z,29.27
2023-02-04T05:15:38.555Z,42.50
2023-02-04T05:18:05.075Z,31.30
2023-02-04T05:20:32.070Z,26.67
2023-02-04T05:23:01.113Z,28.15
2023-02-04T05:25:28.802Z,33.33
2023-02-04T05:27:55.561Z,24.08
2023-02-04T05:30:22.539Z,33.28
2023-02-04T05:32:49.120Z,27.85
2023-02-04T05:35:15.827Z,37.70
2023-02-04T05:37:42.328Z,35.50
2023-02-04T05:40:09.286Z,28.48
2023-02-04T05:42:35.819Z,26.13
2023-02-04T05:45:02.345Z,31.85
2023-02-04T05:47:28.825Z,32.55
2023-02-04T05:49:55.309Z,28.77
2023-02-04T05:52:21.854Z,28.92
2023-02-04T05:54:48.350Z,34.28
2023-02-04T05:57:14.836Z,24.65
2023-02-04T05:59:41.372Z,34.08
2023-02-04T06:02:07.880Z,33.08
2023-02-04T06:04:34.633Z,22.67
2023-02-04T06:07:01.675Z,22.30
2023-02-04T06:09:28.183Z,19.65
2023-02-04T06:11:54.686Z,24.17
2023-02-04T06:14:21.201Z,32.75
2023-02-04T06:16:48.912Z,22.67
2023-02-04T06:19:15.481Z,28.00
2023-02-04T06:21:42.019Z,39.75
2023-02-04T06:24:08.632Z,36.95
2023-02-04T06:26:35.156Z,25.83
2023-02-04T06:29:01.793Z,30.42
2023-02-04T06:31:28.542Z,19.48
2023-02-04T06:33:55.156Z,41.72
2023-02-04T06:36:21.671Z,32.53
2023-02-04T06:38:48.260Z,29.25
2023-02-04T06:41:14.818Z,33.90
2023-02-04T06:43:41.276Z,37.25
2023-02-04T06:46:08.133Z,28.52
2023-02-04T06:48:34.683Z,31.90
2023-02-04T06:51:01.139Z,35.85
2023-02-04T06:53:27.637Z,34.90
2023-02-04T06:55:54.242Z,28.85
2023-02-04T06:58:20.725Z,28.90
2023-02-04T07:00:47.257Z,38.70
2023-02-04T07:03:13.904Z,48.03
2023-02-04T07:05:40.399Z,27.08
2023-02-04T07:08:06.888Z,39.00
2023-02-04T07:10:33.866Z,40.47
2023-02-04T07:13:00.686Z,34.17
2023-02-04T07:15:27.208Z,26.17
2023-02-04T07:17:54.007Z,43.58
2023-02-04T07:20:20.645Z,31.67
2023-02-04T07:22:47.178Z,40.53
2023-02-04T07:25:15.929Z,43.83
2023-02-04T07:27:42.483Z,33.15
2023-02-04T07:30:10.587Z,33.63
2023-02-04T07:32:37.148Z,51.30
2023-02-04T07:35:03.976Z,47.08
2023-02-04T07:37:30.464Z,35.72
2023-02-04T07:39:56.926Z,45.38
2023-02-04T07:42:23.430Z,43.22
2023-02-04T07:44:58.770Z,39.00
2023-02-04T07:47:25.257Z,44.08
2023-02-04T07:49:51.866Z,50.45
2023-02-04T07:52:18.325Z,38.70
2023-02-04T07:54:44.860Z,45.25
2023-02-04T07:57:11.404Z,40.35
2023-02-04T07:59:37.899Z,39.88
2023-02-04T08:02:04.481Z,35.92
2023-02-04T08:04:31.118Z,39.53
2023-02-04T08:06:57.875Z,32.55
2023-02-04T08:09:27.004Z,43.80
2023-02-04T08:11:53.495Z,49.38
2023-02-04T08:14:20.170Z,44.35
2023-02-04T08:16:46.848Z,41.50
2023-02-04T08:19:18.770Z,24.40
2023-02-04T08:21:48.371Z,33.28
2023-02-04T08:24:16.064Z,29.52
2023-02-04T08:26:43.314Z,37.20
2023-02-04T08:29:10.156Z,41.25
2023-02-04T08:31:38.244Z,34.05
2023-02-04T08:34:05.861Z,38.65
2023-02-04T08:36:32.650Z,33.38
2023-02-04T08:38:59.148Z,41.90
2023-02-04T08:41:25.684Z,34.30
2023-02-04T08:43:52.214Z,42.25
2023-02-04T08:46:18.827Z,41.65
2023-02-04T08:48:45.397Z,40.55
2023-02-04T08:51:11.937Z,37.85
2023-02-04T08:53:40.385Z,31.75
2023-02-04T08:56:07.783Z,35.60
2023-02-04T08:58:34.643Z,37.75
2023-02-04T09:01:01.644Z,34.65
2023-02-04T09:03:28.198Z,36.92
2023-02-04T09:05:54.760Z,37.00
2023-02-04T09:08:21.250Z,45.15
2023-02-04T09:10:47.742Z,37.58
2023-02-04T09:13:14.405Z,39.53
2023-02-04T09:15:40.956Z,39.30
2023-02-04T09:18:19.036Z,43.70
2023-02-04T09:20:45.739Z,44.50
2023-02-04T09:23:12.859Z,43.83
2023-02-04T09:25:40.281Z,31.25
2023-02-04T09:28:09.847Z,32.20
2023-02-04T09:30:36.467Z,36.13
2023-02-04T09:33:03.057Z,37.17
2023-02-04T09:35:29.517Z,36.15
2023-02-04T09:37:56.041Z,29.15
2023-02-04T09:40:22.936Z,45.15
2023-02-04T09:42:50.995Z,33.95
2023-02-04T09:45:20.704Z,36.13
2023-02-04T09:47:47.418Z,36.42
2023-02-04T09:50:16.023Z,37.33
2023-02-04T09:52:43.152Z,35.22
2023-02-04T09:55:14.454Z,36.40
2023-02-04T10:00:15.702Z,36.10
2023-02-04T10:02:42.245Z,36.83
2023-02-04T10:05:22.399Z,30.45
2023-02-04T10:07:49.231Z,38.63
2023-02-04T10:10:17.411Z,51.03
2023-02-04T10:12:44.896Z,45.63
2023-02-04T10:15:16.153Z,35.40
2023-02-04T10:20:14.228Z,47.65
2023-02-04T10:22:41.220Z,42.97
2023-02-04T10:25:15.597Z,40.08
2023-02-04T10:27:53.125Z,48.67
2023-02-04T10:30:24.082Z,47.10
2023-02-04T10:32:51.202Z,44.95
2023-02-04T10:35:19.395Z,62.90
2023-02-04T10:37:46.615Z,46.97
2023-02-04T10:40:26.893Z,61.92
2023-02-04T10:42:53.498Z,51.95
2023-02-04T10:45:28.698Z,62.60
2023-02-04T10:47:56.908Z,44.80
2023-02-04T10:50:25.987Z,50.33
2023-02-04T10:52:55.407Z,46.38
2023-02-04T10:55:23.643Z,51.15
2023-02-04T10:57:52.635Z,44.15
2023-02-04T11:00:21.486Z,53.85
2023-02-04T11:02:53.851Z,51.88
2023-02-04T11:05:22.447Z,44.75
2023-02-04T11:07:49.621Z,57.17
2023-02-04T11:10:21.608Z,47.40
2023-02-04T11:13:04.924Z,43.55
2023-02-04T11:15:50.748Z,50.35
2023-02-04T11:18:20.606Z,41.70
2023-02-04T11:20:55.346Z,41.63
2023-02-04T11:23:28.363Z,49.35
2023-02-04T11:26:10.383Z,49.95
2023-02-04T11:28:48.089Z,31.50
2023-02-04T11:31:20.444Z,35.72
2023-02-04T11:33:47.978Z,37.40
2023-02-04T11:36:16.151Z,35.33
2023-02-04T11:38:47.051Z,32.42
2023-02-04T11:41:39.776Z,35.53
2023-02-04T11:44:08.781Z,32.20
2023-02-04T11:46:35.374Z,35.67
2023-02-04T11:49:01.936Z,37.13
2023-02-04T11:51:32.063Z,44.25
2023-02-04T11:53:58.771Z,44.72
2023-02-04T11:56:28.831Z,31.85
2023-02-04T11:58:58.002Z,31.02
2023-02-04T12:01:30.240Z,30.15
2023-02-04T12:03:58.845Z,30.17
2023-02-04T12:06:28.661Z,35.33
2023-02-04T12:09:14.542Z,39.30
2023-02-04T12:11:51.987Z,35.72
2023-02-04T12:14:19.183Z,37.22
2023-02-04T12:16:51.332Z,30.80
2023-02-04T12:19:18.023Z,40.00
2023-02-04T12:21:44.794Z,32.60
2023-02-04T12:24:11.315Z,42.88
2023-02-04T12:26:37.828Z,33.55
2023-02-04T12:29:05.580Z,32.05
2023-02-04T12:31:33.025Z,37.63
2023-02-04T12:33:59.919Z,40.13
2023-02-04T12:36:27.552Z,29.60
2023-02-04T12:38:54.321Z,38.90
2023-02-04T12:41:20.951Z,29.02
2023-02-04T12:43:50.404Z,37.83
2023-02-04T12:46:17.813Z,34.83
2023-02-04T12:48:44.397Z,28.45
2023-02-04T12:51:10.909Z,28.33
2023-02-04T12:53:37.468Z,33.55
2023-02-04T12:56:04.413Z,37.30
2023-02-04T12:58:30.916Z,31.13
2023-02-04T13:00:57.588Z,39.95
2023-02-04T13:03:25.199Z,27.08
2023-02-04T13:05:51.712Z,36.60
2023-02-04T13:08:18.244Z,30.42
2023-02-04T13:10:44.755Z,29.77
2023-02-04T13:13:11.223Z,38.55
2023-02-04T13:15:37.784Z,28.40
2023-02-04T13:18:04.617Z,28.77
2023-02-04T13:20:31.102Z,44.15
2023-02-04T13:22:57.597Z,34.85
2023-02-04T13:25:24.105Z,31.63
2023-02-04T13:27:50.713Z,33.33
2023-02-04T13:30:17.576Z,35.13
2023-02-04T13:32:44.213Z,32.20
2023-02-04T13:35:10.832Z,34.58
2023-02-04T13:37:38.461Z,31.13
2023-02-04T13:40:07.629Z,28.55
2023-02-04T13:42:34.103Z,35.05
2023-02-04T13:45:01.008Z,30.17
2023-02-04T13:47:27.793Z,37.35
2023-02-04T13:49:54.357Z,28.42
2023-02-04T13:52:21.711Z,17.35
2023-02-04T13:54:48.221Z,30.40
2023-02-04T13:57:14.711Z,29.80
2023-02-04T13:59:41.292Z,26.67
2023-02-04T14:02:09.293Z,26.65
2023-02-04T14:04:36.962Z,29.23
2023-02-04T14:07:03.650Z,29.85
2023-02-04T14:09:30.187Z,34.05
2023-02-04T14:11:56.713Z,36.67
2023-02-04T14:14:23.407Z,30.05
2023-02-04T14:16:52.239Z,24.88
2023-02-04T14:19:19.983Z,26.17
2023-02-04T14:21:47.304Z,29.75
2023-02-04T14:24:13.842Z,31.10
2023-02-04T14:26:40.357Z,33.92
2023-02-04T14:29:06.965Z,34.35
2023-02-04T14:31:33.450Z,37.53
2023-02-04T14:33:59.974Z,33.78
2023-02-04T14:36:26.524Z,31.10
2023-02-04T14:38:53.086Z,28.58
2023-02-04T14:41:23.712Z,33.65
2023-02-04T14:43:50.247Z,28.73
2023-02-04T14:46:16.864Z,38.78
2023-02-04T14:48:45.311Z,37.63
2023-02-04T14:51:12.288Z,30.85
2023-02-04T14:53:40.931Z,34.80
2023-02-04T14:56:08.909Z,27.23
2023-02-04T14:58:35.458Z,35.22
2023-02-04T15:01:02.080Z,29.17
2023-02-04T15:03:28.676Z,23.48
2023-02-04T15:05:55.267Z,24.90
2023-02-04T15:08:21.803Z,36.08
2023-02-04T15:10:48.376Z,33.95
2023-02-04T15:13:15.140Z,22.05
2023-02-04T15:15:42.158Z,20.42
2023-02-04T15:18:08.645Z,24.40
2023-02-04T15:20:35.451Z,32.05
2023-02-04T15:23:02.171Z,35.85
2023-02-04T15:25:28.676Z,29.95
2023-02-04T15:27:55.454Z,27.17
2023-02-04T15:30:22.085Z,26.23
2023-02-04T15:32:48.740Z,33.25
2023-02-04T15:35:15.302Z,37.13
2023-02-04T15:37:41.839Z,24.33
2023-02-04T15:40:09.453Z,22.95
2023-02-04T15:42:36.611Z,24.85
2023-02-04T15:45:04.123Z,21.58
2023-02-04T15:47:30.954Z,17.17
2023-02-04T15:49:57.663Z,33.13
2023-02-04T15:52:25.481Z,26.40
2023-02-04T15:54:52.737Z,20.42
2023-02-04T15:57:19.275Z,28.25
2023-02-04T15:59:45.969Z,19.75
2023-02-04T16:02:12.736Z,20.67
2023-02-04T16:04:40.428Z,27.00
2023-02-04T16:07:08.243Z,23.63
2023-02-04T16:09:35.466Z,15.25
2023-02-04T16:12:03.813Z,39.40
2023-02-04T16:14:30.546Z,20.42
2023-02-04T16:16:57.561Z,29.25
2023-02-04T16:19:24.096Z,25.27
2023-02-04T16:21:50.604Z,31.38
2023-02-04T16:24:18.425Z,26.38
2023-02-04T16:26:45.567Z,24.17
2023-02-04T16:29:12.120Z,33.00
2023-02-04T16:31:38.666Z,23.42
2023-02-04T16:34:05.304Z,35.92
2023-02-04T16:36:31.870Z,31.92
2023-02-04T16:38:59.404Z,30.77
2023-02-04T16:41:26.164Z,22.75
2023-02-04T16:43:52.869Z,31.42
2023-02-04T16:46:19.550Z,28.25
2023-02-04T16:48:46.053Z,42.90
2023-02-04T16:51:12.826Z,44.75
2023-02-04T16:53:39.600Z,28.70
2023-02-04T16:56:06.921Z,27.08
2023-02-04T16:58:33.489Z,25.88
2023-02-04T17:01:00.034Z,28.33
2023-02-04T17:03:27.991Z,20.00
2023-02-04T17:05:54.667Z,26.27
2023-02-04T17:08:21.305Z,38.67
2023-02-04T17:11:14.803Z,27.95
2023-02-04T17:13:41.301Z,34.70
2023-02-04T17:16:07.887Z,28.05
2023-02-04T17:18:34.436Z,27.02
2023-02-04T17:21:01.070Z,25.10
2023-02-04T17:23:28.400Z,31.17
2023-02-04T17:25:55.021Z,25.30
2023-02-04T17:28:21.536Z,21.42
2023-02-04T17:30:48.213Z,28.20
2023-02-04T17:33:15.052Z,35.25
2023-02-04T17:35:41.548Z,24.42
2023-02-04T17:38:08.155Z,24.20
2023-02-04T17:40:34.708Z,21.17
2023-02-04T17:43:01.359Z,32.20
2023-02-04T17:45:27.927Z,35.63
2023-02-04T17:47:54.468Z,32.25
2023-02-04T17:50:20.998Z,26.45
2023-02-04T17:52:47.497Z,28.85
2023-02-04T17:55:24.094Z,26.20
2023-02-04T17:57:51.070Z,23.50
2023-02-04T18:00:21.052Z,28.35
2023-02-04T18:02:51.514Z,26.55
2023-02-04T18:05:21.052Z,28.00
2023-02-04T18:08:11.674Z,24.88
2023-02-04T18:10:40.918Z,30.42
2023-02-04T18:13:16.050Z,31.23
2023-02-04T18:15:48.599Z,32.80
2023-02-04T18:18:27.280Z,33.40
2023-02-04T18:20:59.454Z,30.73
2023-02-04T18:23:28.643Z,29.65
2023-02-04T18:25:55.804Z,25.63
2023-02-04T18:28:22.521Z,31.65
2023-02-04T18:30:51.965Z,32.88
2023-02-04T18:33:25.821Z,35.90
2023-02-04T18:35:57.391Z,29.77
2023-02-04T18:38:26.441Z,31.75
2023-02-04T18:41:14.028Z,32.20
2023-02-04T18:43:41.276Z,25.45
2023-02-04T18:46:23.550Z,25.27
2023-02-04T18:49:05.988Z,31.60
2023-02-04T18:51:47.195Z,37.28
2023-02-04T18:54:35.822Z,28.55
2023-02-04T18:57:16.035Z,24.38
2023-02-04T18:59:42.826Z,24.58
2023-02-04T19:02:43.409Z,35.90
2023-02-04T19:05:32.841Z,34.28
2023-02-04T19:08:18.383Z,31.27
2023-02-04T19:10:44.970Z,33.40
2023-02-04T19:13:23.631Z,28.13
2023-02-04T19:15:56.022Z,23.88
2023-02-04T19:18:31.228Z,29.38
2023-02-04T19:21:24.811Z,36.13
2023-02-04T19:23:58.664Z,19.55
2023-02-04T19:26:32.390Z,28.70
2023-02-04T19:28:59.313Z,31.25
2023-02-04T19:31:33.698Z,31.20
2023-02-04T19:34:01.952Z,23.77
2023-02-04T19:36:35.267Z,33.03
2023-02-04T19:39:26.133Z,20.13
2023-02-04T19:41:53.868Z,24.35
2023-02-04T19:44:32.114Z,37.30
2023-02-04T19:47:15.950Z,19.52
2023-02-04T19:49:42.570Z,29.48
2023-02-04T19:52:33.388Z,43.47
2023-02-04T19:55:18.501Z,44.53
2023-02-04T19:57:46.376Z,40.00
2023-02-04T20:00:33.204Z,34.55
2023-02-04T20:03:00.799Z,44.17
2023-02-04T20:05:32.481Z,37.00
2023-02-04T20:08:29.862Z,33.78
2023-02-04T20:10:57.105Z,31.65
2023-02-04T20:13:24.722Z,37.15
2023-02-04T20:15:54.627Z,29.65
2023-02-04T20:18:23.302Z,26.58
2023-02-04T20:20:49.788Z,38.40
2023-02-04T20:23:28.061Z,32.33
2023-02-04T20:25:55.336Z,36.60
2023-02-04T20:28:30.142Z,28.98
2023-02-04T20:30:59.356Z,28.88
2023-02-04T20:33:33.499Z,32.22
2023-02-04T20:36:15.130Z,27.33
2023-02-04T20:38:41.710Z,40.15
2023-02-04T20:41:21.062Z,33.75
2023-02-04T20:43:49.016Z,28.75
2023-02-04T20:46:24.981Z,27.42
2023-02-04T20:48:51.782Z,35.75
2023-02-04T20:51:23.490Z,25.85
2023-02-04T20:53:53.275Z,28.98
2023-02-04T20:56:26.387Z,27.17
2023-02-04T20:59:15.877Z,33.80
2023-02-04T21:01:44.442Z,28.55
2023-02-04T21:04:18.002Z,37.63
2023-02-04T21:06:44.507Z,23.27
2023-02-04T21:09:24.116Z,28.95
2023-02-04T21:11:52.104Z,31.13
2023-02-04T21:14:18.648Z,18.10
2023-02-04T21:16:45.169Z,29.23
2023-02-04T21:19:11.854Z,30.20
2023-02-04T21:21:38.442Z,29.50
2023-02-04T21:24:05.666Z,23.45
2023-02-04T21:26:32.511Z,38.20
2023-02-04T21:28:59.115Z,35.05
2023-02-04T21:31:25.792Z,24.85
2023-02-04T21:33:53.386Z,39.78
2023-02-04T21:36:20.194Z,31.17
2023-02-04T21:38:47.158Z,39.13
2023-02-04T21:41:13.874Z,27.85
2023-02-04T21:43:40.369Z,26.85
2023-02-04T21:46:07.069Z,32.38
2023-02-04T21:48:33.635Z,37.13
2023-02-04T21:51:00.256Z,29.42
2023-02-04T21:53:26.851Z,40.70
2023-02-04T21:55:53.421Z,39.17
2023-02-04T21:58:19.970Z,35.00
2023-02-04T22:00:46.562Z,29.23
2023-02-04T22:03:16.957Z,31.92
2023-02-04T22:05:44.494Z,44.28
2023-02-04T22:08:11.257Z,38.90
2023-02-04T22:10:38.209Z,32.15
2023-02-04T22:13:23.527Z,42.28
2023-02-04T22:15:50.068Z,49.67
2023-02-04T22:18:16.645Z,33.58
2023-02-04T22:20:43.118Z,41.90
2023-02-04T22:23:09.624Z,54.90
2023-02-04T22:25:36.330Z,39.30
2023-02-04T22:28:02.991Z,45.03
2023-02-04T22:30:29.684Z,47.78
2023-02-04T22:32:56.520Z,44.38
2023-02-04T22:35:23.166Z,43.95
2023-02-04T22:37:49.824Z,32.97
2023-02-04T22:40:16.523Z,49.47
2023-02-04T22:42:43.247Z,49.28
2023-02-04T22:45:10.356Z,56.17
2023-02-04T22:47:36.889Z,43.55
2023-02-04T22:50:03.541Z,46.35
2023-02-04T22:52:30.050Z,53.65
2023-02-04T22:54:56.538Z,41.05
2023-02-04T22:57:23.063Z,42.42
2023-02-04T22:59:49.672Z,49.92
2023-02-04T23:02:16.177Z,41.28
2023-02-04T23:04:44.092Z,49.85
2023-02-04T23:07:11.592Z,44.63
2023-02-04T23:09:38.126Z,52.75
2023-02-04T23:12:13.698Z,59.35
2023-02-04T23:14:41.653Z,48.08
2023-02-04T23:17:09.961Z,52.85
2023-02-04T23:19:36.756Z,47.05
2023-02-04T23:22:03.663Z,52.72
2023-02-04T23:24:30.543Z,42.58
2023-02-04T23:26:59.951Z,60.33
2023-02-04T23:29:28.412Z,57.50
2023-02-04T23:31:55.881Z,54.15
2023-02-04T23:34:22.446Z,76.53
2023-02-04T23:36:51.190Z,70.70
2023-02-04T23:39:19.647Z,65.30
2023-02-04T23:41:47.052Z,55.92
2023-02-04T23:44:13.839Z,60.67
2023-02-04T23:46:40.647Z,71.22
2023-02-04T23:49:07.338Z,54.88
2023-02-04T23:51:34.107Z,60.08
2023-02-04T23:54:00.813Z,72.80
2023-02-04T23:56:27.874Z,68.38
2023-02-04T23:58:55.309Z,71.28
